Terminal Aerodrome Forecast
Issued by NWS

Home | Current Version | Previous Version | Text Only | Print | Product List | Glossary On
Versions: 1 2 3 4 5 6 7 8 9 10 11 12 13 14 15 16 17
000
FTUS45 KRIW 211100
TAFRKS
TAF
KRKS 211120Z 2112/2212 VRB05KT P6SM SKC
     FM211900 27010KT P6SM SCT070
     FM220000 28009KT P6SM VCSH BKN070
     FM220300 08009KT P6SM VCSH BKN070
     FM220800 10006KT P6SM SCT080=

USA.gov is the U.S. government's official web portal to all federal, state and local government web resources and services.